Mulberry, Arkansas
Current Conditions -  °F | °C
As of 12:53 AM on Thursday 23 Oct 2014 (Local Time) from KFSM Reporting Station
Clear Clear  
Wind Chill: 58°   Ceiling: Unl
Heat Index: 58°   Visibility: 10mi
Dew Point: 53°   Wind: 6mph
Humidity: 84%   Direction: 60°ENE
Pressure: 30.15"   Gusts: NA
Location:  35.5°N, 94.05°W
Report Text: KFSM 230553Z AUTO 06005KT 10SM CLR 14/12 A3015 RMK AO2 SLP208 T01440117 10183 20139 402440122 58003
Loading
Personal Weather Stations






























Interactive Weather Map
Tropical Storm Tracking
New forecast layout! Learn more

10-Day Weather Forecast

Advertisements
Track Severe Weather on mobile